createdAt,value
2023-03-01T00:01:34.691Z,1.20
2023-03-01T00:04:02.531Z,1.19
2023-03-01T00:06:30.961Z,1.19
2023-03-01T00:08:59.170Z,1.18
2023-03-01T00:11:29.476Z,1.17
2023-03-01T00:14:00.313Z,1.18
2023-03-01T00:16:32.546Z,1.17
2023-03-01T00:19:00.771Z,1.15
2023-03-01T00:21:28.703Z,1.14
2023-03-01T00:23:56.929Z,1.14
2023-03-01T00:26:26.274Z,1.13
2023-03-01T00:28:56.437Z,1.12
2023-03-01T00:31:26.534Z,1.11
2023-03-01T00:33:58.843Z,1.10
2023-03-01T00:36:29.848Z,1.07
2023-03-01T00:38:58.556Z,1.03
2023-03-01T00:41:27.821Z,1.00
2023-03-01T00:43:56.615Z,0.98
2023-03-01T00:46:27.381Z,0.97
2023-03-01T00:48:55.210Z,0.97
2023-03-01T00:51:26.381Z,0.96
2023-03-01T00:53:55.916Z,0.95
2023-03-01T00:56:24.434Z,0.93
2023-03-01T00:58:52.332Z,0.92
2023-03-01T01:01:23.020Z,0.90
2023-03-01T01:04:11.253Z,0.86
2023-03-01T01:06:43.435Z,0.79
2023-03-01T01:09:18.112Z,0.74
2023-03-01T01:11:48.337Z,0.71
2023-03-01T01:14:17.315Z,0.67
2023-03-01T01:16:45.172Z,0.65
2023-03-01T01:19:14.336Z,0.64
2023-03-01T01:21:44.262Z,0.65
2023-03-01T01:24:13.135Z,0.64
2023-03-01T01:26:41.649Z,0.64
2023-03-01T01:29:09.876Z,0.64
2023-03-01T01:31:39.113Z,0.65
2023-03-01T01:34:09.046Z,0.64
2023-03-01T01:36:37.372Z,0.63
2023-03-01T01:39:05.371Z,0.62
2023-03-01T01:41:33.272Z,0.60
2023-03-01T01:44:27.084Z,0.59
2023-03-01T01:47:00.822Z,0.58
2023-03-01T01:49:36.910Z,0.56
2023-03-01T01:52:12.674Z,0.56
2023-03-01T01:55:08.235Z,0.54
2023-03-01T01:57:43.022Z,0.52
2023-03-01T02:00:28.711Z,0.52
2023-03-01T02:03:00.884Z,0.50
2023-03-01T02:05:38.177Z,0.50
2023-03-01T02:08:06.556Z,0.50
2023-03-01T02:10:35.792Z,0.49
2023-03-01T02:13:04.307Z,0.47
2023-03-01T02:15:37.192Z,0.44
2023-03-01T02:18:05.813Z,0.42
2023-03-01T02:21:18.799Z,0.41
2023-03-01T02:23:46.803Z,0.39
2023-03-01T02:26:17.488Z,0.36
2023-03-01T02:28:46.142Z,0.35
2023-03-01T02:31:46.410Z,0.34
2023-03-01T02:34:20.815Z,0.33
2023-03-01T02:36:58.496Z,0.30
2023-03-01T02:39:42.847Z,0.27
2023-03-01T02:42:13.706Z,0.25
2023-03-01T02:44:41.486Z,0.23
2023-03-01T02:47:09.226Z,0.21
2023-03-01T02:49:38.444Z,0.17
2023-03-01T02:52:34.276Z,0.15
2023-03-01T02:55:05.981Z,0.16
2023-03-01T02:57:35.840Z,0.16
2023-03-01T03:00:10.493Z,0.15
2023-03-01T03:02:38.772Z,0.14
2023-03-01T03:05:12.003Z,0.11
2023-03-01T03:07:42.397Z,0.10
2023-03-01T03:10:20.474Z,0.06
2023-03-01T03:13:12.753Z,0.02
2023-03-01T03:15:41.496Z,-0.00
2023-03-01T03:18:12.764Z,-0.01
2023-03-01T03:20:42.197Z,-0.01
2023-03-01T03:23:10.590Z,-0.02
2023-03-01T03:25:38.846Z,-0.04
2023-03-01T03:28:10.999Z,-0.05
2023-03-01T03:30:40.774Z,-0.06
2023-03-01T03:33:10.664Z,-0.06
2023-03-01T03:35:45.804Z,-0.08
2023-03-01T03:38:18.453Z,-0.11
2023-03-01T03:41:03.511Z,-0.15
2023-03-01T03:43:33.830Z,-0.16
2023-03-01T03:46:01.876Z,-0.16
2023-03-01T03:48:29.620Z,-0.15
2023-03-01T03:50:57.725Z,-0.13
2023-03-01T03:53:27.318Z,-0.12
2023-03-01T03:55:55.135Z,-0.11
2023-03-01T03:58:24.410Z,-0.11
2023-03-01T04:00:54.633Z,-0.10
2023-03-01T04:03:23.323Z,-0.12
2023-03-01T04:05:51.799Z,-0.12
2023-03-01T04:08:23.818Z,-0.14
2023-03-01T04:10:54.179Z,-0.17
2023-03-01T04:13:23.409Z,-0.21
2023-03-01T04:15:55.436Z,-0.23
2023-03-01T04:18:24.819Z,-0.25
2023-03-01T04:20:56.217Z,-0.24
2023-03-01T04:23:24.316Z,-0.25
2023-03-01T04:25:59.793Z,-0.25
2023-03-01T04:28:36.955Z,-0.26
2023-03-01T04:31:18.426Z,-0.29
2023-03-01T04:33:55.721Z,-0.29
2023-03-01T04:36:26.661Z,-0.32
2023-03-01T04:38:55.750Z,-0.34
2023-03-01T04:41:25.732Z,-0.34
2023-03-01T04:43:53.801Z,-0.33
2023-03-01T04:46:22.713Z,-0.31
2023-03-01T04:48:51.054Z,-0.30
2023-03-01T04:51:19.496Z,-0.33
2023-03-01T04:53:47.405Z,-0.33
2023-03-01T04:56:16.466Z,-0.33
2023-03-01T04:58:44.986Z,-0.34
2023-03-01T05:01:17.925Z,-0.38
2023-03-01T05:03:50.511Z,-0.42
2023-03-01T05:06:22.368Z,-0.44
2023-03-01T05:08:50.478Z,-0.44
2023-03-01T05:11:18.894Z,-0.43
2023-03-01T05:13:46.776Z,-0.42
2023-03-01T05:16:14.981Z,-0.41
2023-03-01T05:18:43.693Z,-0.41
2023-03-01T05:21:13.968Z,-0.40
2023-03-01T05:23:41.989Z,-0.42
2023-03-01T05:26:25.921Z,-0.45
2023-03-01T05:29:00.526Z,-0.47
2023-03-01T05:31:29.225Z,-0.47
2023-03-01T05:33:57.082Z,-0.45
2023-03-01T05:36:25.211Z,-0.46
2023-03-01T05:38:53.109Z,-0.46
2023-03-01T05:41:21.044Z,-0.46
2023-03-01T05:43:48.832Z,-0.47
2023-03-01T05:46:17.864Z,-0.47
2023-03-01T05:48:45.726Z,-0.48
2023-03-01T05:51:15.480Z,-0.46
2023-03-01T05:53:46.927Z,-0.43
2023-03-01T05:56:16.949Z,-0.42
2023-03-01T05:58:44.919Z,-0.41
2023-03-01T06:01:15.551Z,-0.39
2023-03-01T06:03:43.935Z,-0.35
2023-03-01T06:06:11.896Z,-0.32
2023-03-01T06:08:39.716Z,-0.29
2023-03-01T06:11:08.689Z,-0.24
2023-03-01T06:13:37.162Z,-0.19
2023-03-01T06:16:07.479Z,-0.13
2023-03-01T06:18:36.500Z,-0.09
2023-03-01T06:21:06.238Z,-0.07
2023-03-01T06:23:34.858Z,-0.02
2023-03-01T06:26:07.188Z,0.04
2023-03-01T06:28:35.063Z,0.11
2023-03-01T06:31:03.065Z,0.19
2023-03-01T06:33:31.360Z,0.28
2023-03-01T06:35:59.212Z,0.36
2023-03-01T06:38:27.189Z,0.43
2023-03-01T06:40:56.272Z,0.51
2023-03-01T06:43:24.690Z,0.59
2023-03-01T06:45:52.750Z,0.65
2023-03-01T06:48:20.775Z,0.73
2023-03-01T06:50:48.722Z,0.82
2023-03-01T06:53:17.350Z,0.92
2023-03-01T06:55:45.203Z,1.04
2023-03-01T06:58:14.275Z,1.18
2023-03-01T07:00:43.391Z,1.30
2023-03-01T07:03:11.259Z,1.40
2023-03-01T07:06:44.017Z,1.52
2023-03-01T07:09:11.794Z,1.67
2023-03-01T07:11:39.540Z,1.77
2023-03-01T07:14:07.992Z,1.88
2023-03-01T07:16:36.091Z,1.98
2023-03-01T07:19:04.270Z,2.10
2023-03-01T07:21:32.304Z,2.21
2023-03-01T07:24:00.149Z,2.31
2023-03-01T07:26:27.862Z,2.42
2023-03-01T07:28:55.547Z,2.54
2023-03-01T07:31:23.289Z,2.67
2023-03-01T07:33:51.153Z,2.82
2023-03-01T07:36:18.924Z,2.97
2023-03-01T07:38:46.897Z,3.08
2023-03-01T07:41:15.232Z,3.21
2023-03-01T07:43:43.350Z,3.37
2023-03-01T07:46:11.354Z,3.53
2023-03-01T07:48:39.397Z,3.68
2023-03-01T07:51:08.187Z,3.81
2023-03-01T07:53:36.407Z,3.95
2023-03-01T07:56:08.052Z,4.10
2023-03-01T07:58:37.612Z,4.24
2023-03-01T08:01:07.427Z,4.38
2023-03-01T08:03:35.932Z,4.53
2023-03-01T08:06:05.793Z,4.66
2023-03-01T08:08:34.479Z,4.78
2023-03-01T08:11:03.823Z,4.91
2023-03-01T08:13:31.963Z,5.03
2023-03-01T08:16:05.504Z,5.13
2023-03-01T08:18:33.959Z,5.24
2023-03-01T08:21:06.945Z,5.36
2023-03-01T08:23:34.788Z,5.51
2023-03-01T08:26:21.925Z,5.64
2023-03-01T08:28:50.643Z,5.73
2023-03-01T08:31:22.574Z,5.78
2023-03-01T08:33:56.220Z,5.85
2023-03-01T08:36:33.538Z,5.94
2023-03-01T08:39:01.966Z,6.06
2023-03-01T08:41:30.143Z,6.20
2023-03-01T08:44:00.887Z,6.28
2023-03-01T08:46:30.827Z,6.35
2023-03-01T08:48:59.070Z,6.45
2023-03-01T08:51:27.498Z,6.58
2023-03-01T08:53:55.305Z,6.74
2023-03-01T08:56:23.097Z,6.88
2023-03-01T08:58:50.855Z,7.05
2023-03-01T14:02:37.729Z,18.22
2023-03-01T14:05:10.430Z,18.53
2023-03-01T14:07:42.422Z,18.83
2023-03-01T14:10:13.593Z,19.19
2023-03-01T14:12:50.603Z,19.62
2023-03-01T14:15:33.176Z,20.12
2023-03-01T14:18:05.710Z,20.60
2023-03-01T14:20:39.324Z,20.89
2023-03-01T14:23:13.316Z,21.00
2023-03-01T14:25:49.264Z,21.18
2023-03-01T14:28:25.570Z,21.51
2023-03-01T14:30:56.027Z,21.86
2023-03-01T14:33:34.983Z,22.30
2023-03-01T14:36:07.337Z,22.62
2023-03-01T14:38:39.522Z,22.75
2023-03-01T14:41:21.568Z,22.95
2023-03-01T14:43:53.030Z,23.33
2023-03-01T14:46:42.900Z,23.55
2023-03-01T14:49:12.539Z,23.76
2023-03-01T14:51:42.083Z,23.96
2023-03-01T14:54:36.914Z,24.30
2023-03-01T14:57:05.103Z,24.61
2023-03-01T14:59:35.622Z,24.68
2023-03-01T15:02:03.831Z,24.82
2023-03-01T15:04:32.105Z,25.21
2023-03-01T15:07:05.976Z,25.64
2023-03-01T15:09:36.092Z,26.06
2023-03-01T15:12:42.030Z,26.44
2023-03-01T15:15:36.612Z,26.67
2023-03-01T15:18:13.022Z,26.86
2023-03-01T15:20:40.947Z,26.96
2023-03-01T15:23:23.345Z,27.08
2023-03-01T15:25:57.523Z,27.37
2023-03-01T15:28:44.438Z,27.64
2023-03-01T15:31:24.540Z,28.03
2023-03-01T15:33:53.284Z,28.39
2023-03-01T15:36:32.271Z,28.63
2023-03-01T15:39:04.326Z,28.79
2023-03-01T15:41:33.292Z,28.82
2023-03-01T15:44:14.926Z,28.63
2023-03-01T15:46:47.510Z,28.47
2023-03-01T15:49:54.054Z,28.28
2023-03-01T15:52:23.284Z,26.83
2023-03-01T15:54:51.280Z,25.14
2023-03-01T15:57:19.152Z,23.46
2023-03-01T15:59:47.028Z,21.96
2023-03-01T16:02:15.057Z,20.56
2023-03-01T16:04:43.102Z,19.24
2023-03-01T16:07:10.927Z,18.07
2023-03-01T16:09:38.854Z,17.05
2023-03-01T16:12:07.444Z,16.14
2023-03-01T16:14:35.356Z,15.34
2023-03-01T16:17:03.291Z,14.65
2023-03-01T16:19:31.285Z,14.06
2023-03-01T16:21:59.056Z,13.53
2023-03-01T16:24:27.064Z,13.04
2023-03-01T16:26:54.976Z,12.60
2023-03-01T16:29:22.866Z,12.20
2023-03-01T16:31:50.999Z,11.83
2023-03-01T16:34:19.168Z,11.47
2023-03-01T16:36:49.679Z,11.15
2023-03-01T16:39:17.923Z,10.83
2023-03-01T16:41:45.742Z,10.51
2023-03-01T16:44:13.474Z,10.22
2023-03-01T16:46:42.751Z,9.94
2023-03-01T16:49:10.829Z,9.67
2023-03-01T16:51:38.695Z,9.40
2023-03-01T16:54:06.654Z,9.16
2023-03-01T16:56:36.739Z,8.92
2023-03-01T16:59:06.465Z,8.72
2023-03-01T17:01:40.427Z,8.53
2023-03-01T17:04:12.322Z,8.34
2023-03-01T17:06:40.486Z,8.18
2023-03-01T17:09:08.315Z,8.00
2023-03-01T17:11:36.798Z,7.83
2023-03-01T17:14:04.654Z,7.66
2023-03-01T17:16:33.195Z,7.51
2023-03-01T17:19:01.291Z,7.35
2023-03-01T17:21:29.660Z,7.21
2023-03-01T17:23:59.360Z,7.08
2023-03-01T17:26:30.935Z,6.97
2023-03-01T17:28:59.453Z,6.85
2023-03-01T17:31:27.665Z,6.75
2023-03-01T17:33:58.483Z,6.65
2023-03-01T17:36:27.556Z,6.56
2023-03-01T17:38:55.413Z,6.48
2023-03-01T17:41:25.277Z,6.39
2023-03-01T17:43:53.714Z,6.31
2023-03-01T17:46:22.336Z,6.22
2023-03-01T17:48:50.305Z,6.15
2023-03-01T17:51:19.190Z,6.05
2023-03-01T17:53:47.220Z,5.95
2023-03-01T17:56:16.414Z,5.86
2023-03-01T17:58:46.751Z,5.76
2023-03-01T18:01:17.372Z,5.66
2023-03-01T18:03:47.510Z,5.56
2023-03-01T18:06:18.838Z,5.45
2023-03-01T18:08:48.784Z,5.36
2023-03-01T18:11:18.049Z,5.25
2023-03-01T18:13:47.667Z,5.14
2023-03-01T18:16:17.533Z,5.03
2023-03-01T18:18:46.084Z,4.93
2023-03-01T18:21:15.041Z,4.84
2023-03-01T18:23:42.930Z,4.77
2023-03-01T18:26:12.650Z,4.70
2023-03-01T18:28:40.627Z,4.65
2023-03-01T18:31:13.380Z,4.60
2023-03-01T18:33:41.564Z,4.55
2023-03-01T18:36:19.209Z,4.51
2023-03-01T18:38:48.116Z,4.48
2023-03-01T18:41:16.550Z,4.42
2023-03-01T18:43:44.779Z,4.38
2023-03-01T18:46:14.214Z,4.34
2023-03-01T18:48:42.145Z,4.29
2023-03-01T18:51:15.849Z,4.23
2023-03-01T18:53:44.082Z,4.17
2023-03-01T18:56:15.416Z,4.14
2023-03-01T18:58:44.007Z,4.09
2023-03-01T19:01:18.098Z,4.04
2023-03-01T19:03:46.548Z,3.93
2023-03-01T19:06:15.119Z,3.86
2023-03-01T19:08:44.435Z,3.78
2023-03-01T19:11:14.323Z,3.73
2023-03-01T19:13:42.590Z,3.70
2023-03-01T19:16:11.696Z,3.68
2023-03-01T19:18:41.196Z,3.63
2023-03-01T19:21:11.151Z,3.60
2023-03-01T19:23:41.383Z,3.57
2023-03-01T19:26:11.837Z,3.55
2023-03-01T19:28:40.785Z,3.51
2023-03-01T19:31:20.977Z,3.47
2023-03-01T19:33:57.038Z,3.44
2023-03-01T19:36:35.295Z,3.42
2023-03-01T19:39:05.690Z,3.39
2023-03-01T19:41:34.052Z,3.37
2023-03-01T19:44:04.658Z,3.34
2023-03-01T19:46:34.286Z,3.32
2023-03-01T19:49:03.506Z,3.29
2023-03-01T19:51:38.872Z,3.27
2023-03-01T19:54:09.863Z,3.24
2023-03-01T19:56:38.247Z,3.22
2023-03-01T19:59:07.080Z,3.19
2023-03-01T20:01:35.932Z,3.17
2023-03-01T20:04:05.247Z,3.13
2023-03-01T20:06:34.036Z,3.10
2023-03-01T20:09:15.335Z,3.07
2023-03-01T20:11:49.001Z,3.04
2023-03-01T20:14:17.121Z,3.01
2023-03-01T20:16:44.979Z,3.00
2023-03-01T20:19:12.835Z,2.98
2023-03-01T20:21:40.787Z,2.95
2023-03-01T20:24:08.877Z,2.93
2023-03-01T20:26:37.203Z,2.92
2023-03-01T20:29:10.149Z,2.91
2023-03-01T20:31:39.810Z,2.88
2023-03-01T20:34:07.822Z,2.85
2023-03-01T20:36:38.228Z,2.82
2023-03-01T20:39:06.797Z,2.79
2023-03-01T20:41:34.785Z,2.77
2023-03-01T20:44:04.442Z,2.74
2023-03-01T20:46:34.215Z,2.72
2023-03-01T20:49:02.909Z,2.71
2023-03-01T20:51:30.901Z,2.71
2023-03-01T20:54:00.099Z,2.70
2023-03-01T20:56:28.332Z,2.69
2023-03-01T20:59:09.571Z,2.67
2023-03-01T21:01:39.412Z,2.65
2023-03-01T21:04:07.658Z,2.63
2023-03-01T21:06:36.285Z,2.59
2023-03-01T21:09:05.182Z,2.54
2023-03-01T21:11:33.255Z,2.51
2023-03-01T21:14:01.684Z,2.49
2023-03-01T21:16:29.895Z,2.48
2023-03-01T21:19:01.676Z,2.45
2023-03-01T21:21:29.543Z,2.42
2023-03-01T21:23:57.335Z,2.40
2023-03-01T21:26:26.512Z,2.36
2023-03-01T21:29:01.448Z,2.31
2023-03-01T21:31:33.911Z,2.26
2023-03-01T21:34:06.311Z,2.23
2023-03-01T21:36:35.212Z,2.20
2023-03-01T21:39:05.302Z,2.18
2023-03-01T21:41:35.788Z,2.17
2023-03-01T21:44:04.806Z,2.17
2023-03-01T21:46:36.500Z,2.15
2023-03-01T21:49:05.778Z,2.13
2023-03-01T21:51:33.558Z,2.12
2023-03-01T21:54:01.541Z,2.09
2023-03-01T21:56:32.115Z,2.06
2023-03-01T21:59:00.926Z,2.05
2023-03-01T22:01:29.407Z,2.03
2023-03-01T22:03:59.278Z,2.02
2023-03-01T22:06:29.802Z,2.02
2023-03-01T22:09:05.890Z,2.01
2023-03-01T22:11:36.561Z,2.00
2023-03-01T22:14:04.944Z,2.00
2023-03-01T22:16:35.885Z,1.99
2023-03-01T22:19:05.507Z,2.00
2023-03-01T22:21:34.371Z,1.98
2023-03-01T22:24:02.293Z,1.94
2023-03-01T22:26:33.580Z,1.90
2023-03-01T22:29:03.926Z,1.86
2023-03-01T22:31:32.062Z,1.83
2023-03-01T22:34:00.359Z,1.81
2023-03-01T22:36:28.606Z,1.81
2023-03-01T22:39:00.541Z,1.81
2023-03-01T22:41:33.998Z,1.82
2023-03-01T22:44:02.333Z,1.83
2023-03-01T22:46:30.941Z,1.83
2023-03-01T22:49:01.763Z,1.79
2023-03-01T22:51:34.666Z,1.73
2023-03-01T22:54:02.944Z,1.68
2023-03-01T22:56:33.141Z,1.64
2023-03-01T22:59:06.475Z,1.60
2023-03-01T23:01:35.278Z,1.58
2023-03-01T23:04:03.477Z,1.56
2023-03-01T23:06:31.771Z,1.54
2023-03-01T23:09:02.152Z,1.54
2023-03-01T23:11:30.156Z,1.55
2023-03-01T23:13:58.843Z,1.56
2023-03-01T23:16:27.323Z,1.56
2023-03-01T23:18:59.217Z,1.57
2023-03-01T23:21:27.408Z,1.55
2023-03-01T23:23:56.358Z,1.54
2023-03-01T23:26:28.890Z,1.53
2023-03-01T23:28:57.687Z,1.51
2023-03-01T23:31:30.294Z,1.52
2023-03-01T23:33:58.154Z,1.51
2023-03-01T23:36:28.233Z,1.50
2023-03-01T23:38:58.930Z,1.51
2023-03-01T23:41:30.058Z,1.51
2023-03-01T23:43:59.807Z,1.52
2023-03-01T23:46:30.533Z,1.51
2023-03-01T23:48:59.164Z,1.51
2023-03-01T23:51:27.062Z,1.50
2023-03-01T23:53:59.250Z,1.48
2023-03-01T23:56:31.308Z,1.44
2023-03-01T23:59:02.039Z,1.41
